createdAt,value
2016-08-16T00:00:07.909Z,0
2016-08-16T00:01:08.655Z,0
2016-08-16T00:02:07.959Z,0
2016-08-16T00:03:07.979Z,0
2016-08-16T00:04:08.030Z,0
2016-08-16T00:05:08.035Z,0
2016-08-16T00:06:08.799Z,0
2016-08-16T00:07:08.085Z,0
2016-08-16T00:08:08.138Z,0
2016-08-16T00:09:08.868Z,0
2016-08-16T00:10:08.893Z,0
2016-08-16T00:11:08.198Z,0
2016-08-16T00:12:08.934Z,0
2016-08-16T00:13:08.249Z,0
2016-08-16T00:14:08.273Z,0
2016-08-16T00:15:08.302Z,0
2016-08-16T00:16:08.353Z,0
2016-08-16T00:17:09.794Z,0
2016-08-16T00:18:08.395Z,0
2016-08-16T00:19:08.405Z,0
2016-08-16T00:20:08.436Z,0
2016-08-16T00:21:08.465Z,0
2016-08-16T00:22:08.489Z,0
2016-08-16T00:23:08.518Z,0
2016-08-16T00:24:08.553Z,0
2016-08-16T00:25:09.297Z,0
2016-08-16T00:26:09.319Z,0
2016-08-16T00:27:10.047Z,0
2016-08-16T00:28:08.651Z,0
2016-08-16T00:29:08.675Z,0
2016-08-16T00:30:08.715Z,0
2016-08-16T00:31:08.733Z,0
2016-08-16T00:32:09.475Z,0
2016-08-16T00:33:08.808Z,0
2016-08-16T00:34:08.811Z,0
2016-08-16T00:35:08.844Z,0
2016-08-16T00:36:08.871Z,0
2016-08-16T00:37:08.899Z,0
2016-08-16T00:38:08.920Z,0
2016-08-16T00:39:23.844Z,0
2016-08-16T00:40:08.978Z,0
2016-08-16T00:41:09.733Z,0
2016-08-16T00:42:09.045Z,0
2016-08-16T00:43:09.055Z,0
2016-08-16T00:44:09.115Z,0
2016-08-16T00:45:09.821Z,0
2016-08-16T00:46:09.136Z,0
2016-08-16T00:47:09.165Z,0
2016-08-16T00:48:10.617Z,0
2016-08-16T00:49:09.949Z,0
2016-08-16T00:50:09.243Z,0
2016-08-16T00:51:09.271Z,0
2016-08-16T00:52:09.297Z,0
2016-08-16T00:53:10.033Z,0
2016-08-16T00:54:09.350Z,0
2016-08-16T00:55:09.377Z,0
2016-08-16T00:56:09.400Z,0
2016-08-16T00:57:09.450Z,0
2016-08-16T00:58:10.188Z,0
2016-08-16T00:59:10.207Z,0
2016-08-16T01:00:09.520Z,0
2016-08-16T01:01:09.544Z,0
2016-08-16T01:02:09.565Z,0
2016-08-16T01:03:10.309Z,0
2016-08-16T01:04:10.335Z,0
2016-08-16T01:05:09.682Z,0
2016-08-16T01:06:09.685Z,0
2016-08-16T01:07:09.698Z,0
2016-08-16T01:08:09.725Z,0
2016-08-16T01:09:09.762Z,0
2016-08-16T01:10:09.785Z,0
2016-08-16T01:11:09.805Z,0
2016-08-16T01:12:09.833Z,0
2016-08-16T01:13:09.860Z,0
2016-08-16T01:14:10.595Z,0
2016-08-16T01:15:09.916Z,0
2016-08-16T01:16:09.949Z,0
2016-08-16T01:17:09.964Z,0
2016-08-16T01:18:10.708Z,0
2016-08-16T01:19:10.022Z,0
2016-08-16T01:20:10.779Z,0
2016-08-16T01:21:10.070Z,0
2016-08-16T01:22:10.110Z,0
2016-08-16T01:23:10.133Z,0
2016-08-16T01:24:10.156Z,0
2016-08-16T01:25:10.199Z,0
2016-08-16T01:26:10.208Z,0
2016-08-16T01:27:10.232Z,0
2016-08-16T01:28:10.969Z,0
2016-08-16T01:29:25.181Z,0
2016-08-16T01:30:11.055Z,0
2016-08-16T01:31:11.067Z,0
2016-08-16T01:32:10.371Z,0
2016-08-16T01:33:10.394Z,0
2016-08-16T01:34:10.425Z,0
2016-08-16T01:35:10.447Z,0
2016-08-16T01:36:10.476Z,0
2016-08-16T01:37:11.210Z,0
2016-08-16T01:38:10.546Z,0
2016-08-16T01:39:10.559Z,0
2016-08-16T01:40:11.303Z,0
2016-08-16T01:41:10.605Z,0
2016-08-16T01:42:11.358Z,0
2016-08-16T01:43:10.661Z,0
2016-08-16T01:44:10.695Z,0
2016-08-16T01:45:11.423Z,0
2016-08-16T01:46:10.762Z,0
2016-08-16T01:47:10.772Z,0
2016-08-16T01:48:11.500Z,0
2016-08-16T01:49:12.242Z,0
2016-08-16T01:50:10.848Z,0
2016-08-16T01:51:10.876Z,0
2016-08-16T01:52:10.910Z,0
2016-08-16T01:53:10.936Z,0
2016-08-16T01:54:10.957Z,0
2016-08-16T01:55:10.988Z,0
2016-08-16T01:56:11.007Z,0
2016-08-16T01:57:11.040Z,0
2016-08-16T01:58:11.056Z,0
2016-08-16T01:59:11.102Z,0
2016-08-16T02:00:11.121Z,0
2016-08-16T02:01:11.152Z,0
2016-08-16T02:02:11.923Z,0
2016-08-16T02:03:11.204Z,0
2016-08-16T02:04:11.225Z,0
2016-08-16T02:05:11.247Z,0
2016-08-16T02:06:11.272Z,0
2016-08-16T02:07:11.297Z,0
2016-08-16T02:08:11.324Z,0
2016-08-16T02:09:12.066Z,0
2016-08-16T02:10:12.091Z,0
2016-08-16T02:11:11.420Z,0
2016-08-16T02:12:11.444Z,0
2016-08-16T02:13:11.461Z,0
2016-08-16T02:14:11.502Z,0
2016-08-16T02:15:12.233Z,0
2016-08-16T02:16:12.249Z,0
2016-08-16T02:17:11.562Z,0
2016-08-16T02:18:11.590Z,0
2016-08-16T02:19:12.322Z,0
2016-08-16T02:20:11.660Z,0
2016-08-16T02:21:11.668Z,0
2016-08-16T02:22:11.699Z,0
2016-08-16T02:23:11.718Z,0
2016-08-16T02:24:11.756Z,0
2016-08-16T02:25:11.779Z,0
2016-08-16T02:26:11.802Z,0
2016-08-16T02:27:11.829Z,0
2016-08-16T02:28:12.563Z,0
2016-08-16T02:29:11.888Z,0
2016-08-16T02:30:12.608Z,0
2016-08-16T02:31:11.934Z,0
2016-08-16T02:32:11.962Z,0
2016-08-16T02:33:11.985Z,0
2016-08-16T02:34:12.016Z,0
2016-08-16T02:35:12.073Z,0
2016-08-16T02:36:12.776Z,0
2016-08-16T02:37:12.084Z,0
2016-08-16T02:38:12.115Z,0
2016-08-16T02:39:12.140Z,0
2016-08-16T02:40:12.178Z,0
2016-08-16T02:41:12.192Z,0
2016-08-16T02:42:12.222Z,0
2016-08-16T02:43:12.248Z,0
2016-08-16T02:44:12.269Z,0
2016-08-16T02:45:13.718Z,0
2016-08-16T02:46:12.334Z,0
2016-08-16T02:47:13.776Z,0
2016-08-16T02:48:13.102Z,0
2016-08-16T02:49:12.409Z,0
2016-08-16T02:50:12.431Z,0
2016-08-16T02:51:12.464Z,0
2016-08-16T02:52:12.486Z,0
2016-08-16T02:53:12.531Z,0
2016-08-16T02:54:12.534Z,0
2016-08-16T02:55:13.269Z,0
2016-08-16T02:56:12.583Z,0
2016-08-16T02:57:13.350Z,0
2016-08-16T02:58:13.352Z,0
2016-08-16T02:59:12.665Z,0
2016-08-16T03:00:12.692Z,0
2016-08-16T03:01:12.721Z,0
2016-08-16T03:02:12.740Z,0
2016-08-16T03:03:12.767Z,0
2016-08-16T03:04:12.791Z,0
2016-08-16T03:05:13.565Z,0
2016-08-16T03:06:12.855Z,0
2016-08-16T03:07:12.871Z,0
2016-08-16T03:08:12.902Z,0
2016-08-16T03:09:12.921Z,0
2016-08-16T03:10:12.948Z,0
2016-08-16T03:11:14.419Z,0
2016-08-16T03:12:13.003Z,0
2016-08-16T03:13:13.025Z,0
2016-08-16T03:14:13.064Z,0
2016-08-16T03:15:13.084Z,0
2016-08-16T03:16:13.819Z,0
2016-08-16T03:17:13.134Z,0
2016-08-16T03:18:13.868Z,0
2016-08-16T03:19:14.635Z,0
2016-08-16T03:20:13.221Z,0
2016-08-16T03:21:13.951Z,0
2016-08-16T03:22:13.995Z,0
2016-08-16T03:23:14.015Z,0
2016-08-16T03:24:13.315Z,0
2016-08-16T03:25:13.338Z,0
2016-08-16T03:26:13.361Z,0
2016-08-16T03:27:13.392Z,0
2016-08-16T03:28:13.418Z,0
2016-08-16T03:29:13.441Z,0
2016-08-16T03:30:14.183Z,0
2016-08-16T03:31:13.493Z,0
2016-08-16T03:32:13.522Z,0
2016-08-16T03:33:13.551Z,0
2016-08-16T03:34:14.292Z,0
2016-08-16T03:35:13.601Z,0
2016-08-16T03:36:14.383Z,0
2016-08-16T03:37:13.665Z,0
2016-08-16T03:38:13.682Z,0
2016-08-16T03:39:13.702Z,0
2016-08-16T03:40:13.726Z,0
2016-08-16T03:41:13.757Z,0
2016-08-16T03:42:13.782Z,0
2016-08-16T03:43:13.807Z,0
2016-08-16T03:44:14.574Z,0
2016-08-16T03:45:14.590Z,0
2016-08-16T03:46:13.894Z,0
2016-08-16T03:47:14.623Z,0
2016-08-16T03:48:13.947Z,0
2016-08-16T03:49:13.973Z,0
2016-08-16T03:50:13.990Z,0
2016-08-16T03:51:14.016Z,0
2016-08-16T03:52:15.463Z,0
2016-08-16T03:53:14.805Z,0
2016-08-16T03:54:14.092Z,0
2016-08-16T03:55:14.123Z,0
2016-08-16T03:56:14.154Z,0
2016-08-16T03:57:14.177Z,0
2016-08-16T03:58:14.193Z,0
2016-08-16T03:59:14.229Z,0
2016-08-16T04:00:14.959Z,0
2016-08-16T04:01:14.296Z,0
2016-08-16T04:02:14.305Z,4
2016-08-16T04:03:14.326Z,0
2016-08-16T04:04:14.352Z,0
2016-08-16T04:05:14.378Z,0
2016-08-16T04:06:14.410Z,0
2016-08-16T04:07:15.138Z,0
2016-08-16T04:08:16.630Z,4
2016-08-16T04:09:14.481Z,4
2016-08-16T04:10:14.527Z,0
2016-08-16T04:11:15.252Z,0
2016-08-16T04:12:14.557Z,4
2016-08-16T04:13:14.580Z,4
2016-08-16T04:14:14.615Z,0
2016-08-16T04:15:14.639Z,0
2016-08-16T04:16:15.378Z,4
2016-08-16T04:17:14.686Z,4
2016-08-16T04:18:14.712Z,0
2016-08-16T04:19:15.446Z,4
2016-08-16T04:20:14.764Z,4
2016-08-16T04:21:14.796Z,0
2016-08-16T04:22:14.815Z,4
2016-08-16T04:23:15.560Z,4
2016-08-16T04:24:14.880Z,4
2016-08-16T04:25:14.920Z,4
2016-08-16T04:26:15.639Z,4
2016-08-16T04:27:14.941Z,4
2016-08-16T04:28:14.966Z,4
2016-08-16T04:29:15.704Z,4
2016-08-16T04:30:15.025Z,4
2016-08-16T04:31:15.059Z,8
2016-08-16T04:32:15.078Z,4
2016-08-16T04:33:15.823Z,4
2016-08-16T04:34:15.140Z,8
2016-08-16T04:35:15.153Z,4
2016-08-16T04:36:15.187Z,4
2016-08-16T04:37:15.195Z,4
2016-08-16T04:38:15.935Z,8
2016-08-16T04:39:16.674Z,8
2016-08-16T04:40:15.283Z,8
2016-08-16T04:41:15.300Z,4
2016-08-16T04:42:16.045Z,8
2016-08-16T04:43:15.348Z,8
2016-08-16T04:44:15.375Z,4
2016-08-16T04:45:15.400Z,8
2016-08-16T04:46:15.427Z,8
2016-08-16T04:47:15.461Z,8
2016-08-16T04:48:16.191Z,8
2016-08-16T04:49:15.512Z,8
2016-08-16T04:50:16.279Z,8
2016-08-16T04:51:16.267Z,8
2016-08-16T04:52:15.583Z,12
2016-08-16T04:53:16.325Z,8
2016-08-16T04:54:16.365Z,8
2016-08-16T04:55:15.671Z,12
2016-08-16T04:56:15.683Z,12
2016-08-16T04:57:16.423Z,8
2016-08-16T04:58:15.751Z,8
2016-08-16T04:59:15.763Z,12
2016-08-16T05:00:15.791Z,12
2016-08-16T05:01:15.817Z,12
2016-08-16T05:02:15.838Z,12
2016-08-16T05:03:15.881Z,12
2016-08-16T05:04:15.897Z,12
2016-08-16T05:05:15.925Z,12
2016-08-16T05:06:15.941Z,12
2016-08-16T05:07:15.966Z,12
2016-08-16T05:08:15.997Z,12
2016-08-16T05:09:16.021Z,12
2016-08-16T05:10:17.467Z,16
2016-08-16T05:11:16.801Z,12
2016-08-16T05:12:16.822Z,12
2016-08-16T05:13:16.830Z,16
2016-08-16T05:14:16.861Z,16
2016-08-16T05:15:16.173Z,12
2016-08-16T05:16:16.913Z,16
2016-08-16T05:17:16.227Z,16
2016-08-16T05:18:16.247Z,16
2016-08-16T05:19:16.985Z,16
2016-08-16T05:20:17.039Z,16
2016-08-16T05:21:16.329Z,16
2016-08-16T05:22:16.352Z,16
2016-08-16T05:23:17.096Z,16
2016-08-16T05:24:16.403Z,20
2016-08-16T05:25:16.434Z,16
2016-08-16T05:26:17.172Z,20
2016-08-16T05:27:16.481Z,16
2016-08-16T05:28:16.527Z,20
2016-08-16T05:29:16.540Z,16
2016-08-16T05:30:17.272Z,20
2016-08-16T05:31:16.590Z,20
2016-08-16T05:32:16.622Z,20
2016-08-16T05:33:16.637Z,20
2016-08-16T05:34:16.661Z,24
2016-08-16T05:35:16.689Z,24
2016-08-16T05:36:16.721Z,24
2016-08-16T05:37:17.466Z,24
2016-08-16T05:38:16.781Z,24
2016-08-16T05:39:16.792Z,28
2016-08-16T05:40:16.837Z,28
2016-08-16T05:41:16.852Z,24
2016-08-16T05:42:16.891Z,28
2016-08-16T05:43:17.601Z,28
2016-08-16T05:44:16.922Z,32
2016-08-16T05:45:16.943Z,28
2016-08-16T05:46:17.684Z,32
2016-08-16T05:47:17.005Z,32
2016-08-16T05:48:17.022Z,36
2016-08-16T05:49:17.056Z,32
2016-08-16T05:50:17.076Z,32
2016-08-16T05:51:17.102Z,32
2016-08-16T05:52:17.132Z,36
2016-08-16T05:53:17.868Z,36
2016-08-16T05:54:18.610Z,36
2016-08-16T05:55:17.207Z,36
2016-08-16T05:56:17.945Z,40
2016-08-16T05:57:17.266Z,40
2016-08-16T05:58:17.302Z,40
2016-08-16T05:59:18.032Z,40
2016-08-16T06:00:17.337Z,44
2016-08-16T06:01:17.366Z,40
2016-08-16T06:02:17.398Z,44
2016-08-16T06:03:18.129Z,44
2016-08-16T06:04:17.441Z,48
2016-08-16T06:05:17.480Z,44
2016-08-16T06:06:17.509Z,48
2016-08-16T06:07:17.524Z,48
2016-08-16T06:08:18.271Z,48
2016-08-16T06:09:17.572Z,52
2016-08-16T06:10:17.611Z,52
2016-08-16T06:11:17.644Z,52
2016-08-16T06:12:18.374Z,52
2016-08-16T06:13:17.680Z,52
2016-08-16T06:14:17.712Z,52
2016-08-16T06:15:17.735Z,56
2016-08-16T06:16:17.766Z,56
2016-08-16T06:17:18.496Z,56
2016-08-16T06:18:17.814Z,60
2016-08-16T06:19:18.550Z,60
2016-08-16T06:20:17.862Z,60
2016-08-16T06:21:18.597Z,60
2016-08-16T06:22:18.627Z,64
2016-08-16T06:23:18.683Z,64
2016-08-16T06:24:17.969Z,68
2016-08-16T06:25:17.996Z,68
2016-08-16T06:26:18.038Z,68
2016-08-16T06:27:18.753Z,68
2016-08-16T06:28:18.085Z,72
2016-08-16T06:29:18.111Z,72
2016-08-16T06:30:18.138Z,72
2016-08-16T06:31:18.172Z,76
2016-08-16T06:32:18.181Z,80
2016-08-16T06:33:18.915Z,80
2016-08-16T06:34:18.942Z,80
2016-08-16T06:35:18.266Z,80
2016-08-16T06:36:18.289Z,84
2016-08-16T06:37:18.317Z,84
2016-08-16T06:38:18.345Z,84
2016-08-16T06:39:18.386Z,88
2016-08-16T06:40:19.109Z,84
2016-08-16T06:41:18.424Z,92
2016-08-16T06:42:18.447Z,92
2016-08-16T06:43:19.193Z,96
2016-08-16T06:44:18.500Z,96
2016-08-16T06:45:19.975Z,100
2016-08-16T06:46:18.563Z,108
2016-08-16T06:47:18.611Z,112
2016-08-16T06:48:18.616Z,112
2016-08-16T06:49:18.639Z,112
2016-08-16T06:50:19.392Z,108
2016-08-16T06:51:19.410Z,104
2016-08-16T06:52:18.721Z,108
2016-08-16T06:53:18.749Z,104
2016-08-16T06:54:18.826Z,104
2016-08-16T06:55:19.550Z,96
2016-08-16T06:56:19.543Z,100
2016-08-16T06:57:19.580Z,96
2016-08-16T06:58:18.885Z,92
2016-08-16T06:59:18.913Z,100
2016-08-16T07:00:19.654Z,104
2016-08-16T07:01:18.986Z,108
2016-08-16T07:02:18.993Z,124
2016-08-16T07:03:19.041Z,140
2016-08-16T07:04:19.050Z,144
2016-08-16T07:05:19.083Z,148
2016-08-16T07:06:19.118Z,152
2016-08-16T07:07:19.842Z,144
2016-08-16T07:08:19.161Z,136
2016-08-16T07:09:19.193Z,140
2016-08-16T07:10:19.235Z,140
2016-08-16T07:12:03.924Z,160
2016-08-16T07:12:34.171Z,152
2016-08-16T07:13:19.304Z,156
2016-08-16T07:14:19.328Z,152
2016-08-16T07:15:20.092Z,148
2016-08-16T07:16:19.399Z,148
2016-08-16T07:17:19.417Z,156
2016-08-16T07:18:19.472Z,156
2016-08-16T07:19:19.478Z,156
2016-08-16T07:20:19.507Z,156
2016-08-16T07:21:19.528Z,156
2016-08-16T07:22:19.554Z,156
2016-08-16T07:23:20.291Z,148
2016-08-16T07:24:21.036Z,128
2016-08-16T07:25:20.351Z,136
2016-08-16T07:26:19.684Z,144
2016-08-16T07:27:19.696Z,168
2016-08-16T07:28:20.435Z,172
2016-08-16T07:29:19.758Z,176
2016-08-16T07:30:19.782Z,176
2016-08-16T07:31:19.815Z,180
2016-08-16T07:32:19.852Z,180
2016-08-16T07:33:34.762Z,176
2016-08-16T07:34:20.615Z,144
2016-08-16T07:35:19.928Z,116
2016-08-16T07:36:19.959Z,108
2016-08-16T07:37:19.991Z,140
2016-08-16T07:38:34.922Z,184
2016-08-16T07:39:20.754Z,176
2016-08-16T07:40:20.884Z,168
2016-08-16T07:41:20.099Z,192
2016-08-16T07:42:20.128Z,228
2016-08-16T07:43:21.585Z,428
2016-08-16T07:44:20.190Z,188
2016-08-16T07:45:20.239Z,180
2016-08-16T07:46:20.246Z,144
2016-08-16T07:47:20.275Z,144
2016-08-16T07:48:20.302Z,128
2016-08-16T07:49:21.044Z,116
2016-08-16T07:50:20.370Z,116
2016-08-16T07:51:21.810Z,140
2016-08-16T07:52:21.136Z,136
2016-08-16T07:53:20.457Z,180
2016-08-16T07:54:21.247Z,172
2016-08-16T07:55:21.218Z,280
2016-08-16T07:56:20.532Z,260
2016-08-16T07:57:21.368Z,224
2016-08-16T07:58:20.594Z,288
2016-08-16T07:59:21.371Z,284
2016-08-16T08:00:20.665Z,284
2016-08-16T08:01:20.690Z,228
2016-08-16T08:02:21.429Z,272
2016-08-16T08:03:20.747Z,248
2016-08-16T08:04:20.766Z,300
2016-08-16T08:05:22.929Z,304
2016-08-16T08:06:20.832Z,240
2016-08-16T08:07:20.860Z,284
2016-08-16T08:08:20.890Z,300
2016-08-16T08:09:20.935Z,292
2016-08-16T08:10:22.363Z,296
2016-08-16T08:11:21.685Z,296
2016-08-16T08:12:21.004Z,248
2016-08-16T08:13:21.032Z,272
2016-08-16T08:14:21.063Z,232
2016-08-16T08:15:21.802Z,368
2016-08-16T08:16:21.121Z,268
2016-08-16T08:17:21.869Z,344
2016-08-16T08:18:21.888Z,304
2016-08-16T08:19:21.205Z,288
2016-08-16T08:20:21.239Z,292
2016-08-16T08:21:21.988Z,244
2016-08-16T08:22:21.308Z,224
2016-08-16T08:23:22.069Z,192
2016-08-16T08:24:21.356Z,172
2016-08-16T08:25:22.097Z,184
2016-08-16T08:26:22.131Z,200
2016-08-16T08:27:36.340Z,164
2016-08-16T08:28:21.577Z,224
2016-08-16T08:29:21.521Z,184
2016-08-16T08:30:22.301Z,252
2016-08-16T08:31:22.991Z,316
2016-08-16T08:32:21.597Z,220
2016-08-16T08:33:21.631Z,152
2016-08-16T08:34:21.681Z,148
2016-08-16T08:35:22.415Z,144
2016-08-16T08:36:21.717Z,140
2016-08-16T08:37:22.458Z,148
2016-08-16T08:38:21.784Z,212
2016-08-16T08:39:21.805Z,164
2016-08-16T08:40:22.545Z,192
2016-08-16T08:41:21.886Z,184
2016-08-16T08:42:21.900Z,204
2016-08-16T08:43:21.933Z,164
2016-08-16T08:44:21.957Z,164
2016-08-16T08:45:21.982Z,224
2016-08-16T08:46:23.442Z,244
2016-08-16T08:47:22.056Z,332
2016-08-16T08:48:22.831Z,152
2016-08-16T08:49:22.104Z,148
2016-08-16T08:50:23.573Z,180
2016-08-16T08:51:22.875Z,184
2016-08-16T08:52:22.921Z,176
2016-08-16T08:53:22.226Z,228
2016-08-16T08:54:22.975Z,308
2016-08-16T08:55:22.285Z,288
2016-08-16T08:56:23.028Z,172
2016-08-16T08:57:22.347Z,168
2016-08-16T08:58:22.399Z,268
2016-08-16T08:59:22.411Z,132
2016-08-16T09:00:22.441Z,256
2016-08-16T09:01:22.466Z,324
2016-08-16T09:02:23.218Z,312
2016-08-16T09:03:22.550Z,300
2016-08-16T09:04:22.556Z,300
2016-08-16T09:05:22.599Z,296
2016-08-16T09:06:23.329Z,304
2016-08-16T09:07:22.656Z,308
2016-08-16T09:08:22.678Z,304
2016-08-16T09:09:23.421Z,308
2016-08-16T09:10:22.752Z,308
2016-08-16T09:11:22.765Z,1052
2016-08-16T09:12:23.518Z,4180
2016-08-16T09:13:24.248Z,3128
2016-08-16T09:14:22.865Z,1268
2016-08-16T09:15:22.918Z,432
2016-08-16T09:16:22.936Z,360
2016-08-16T09:17:23.661Z,304
2016-08-16T09:18:22.997Z,296
2016-08-16T09:19:23.010Z,316
2016-08-16T09:20:23.043Z,312
2016-08-16T09:21:23.082Z,316
2016-08-16T09:22:23.127Z,292
2016-08-16T09:23:23.142Z,268
2016-08-16T09:24:23.167Z,280
2016-08-16T09:25:23.200Z,276
2016-08-16T09:26:23.231Z,276
2016-08-16T09:27:23.972Z,272
2016-08-16T09:28:23.292Z,272
2016-08-16T09:29:23.328Z,268
2016-08-16T09:30:23.359Z,268
2016-08-16T09:31:23.381Z,264
2016-08-16T09:32:24.128Z,260
2016-08-16T09:33:24.156Z,260
2016-08-16T09:34:23.476Z,256
2016-08-16T09:35:23.504Z,260
2016-08-16T09:36:24.262Z,260
2016-08-16T09:37:24.282Z,260
2016-08-16T09:38:23.617Z,260
2016-08-16T09:39:24.341Z,256
2016-08-16T09:40:24.367Z,260
2016-08-16T09:41:23.698Z,256
2016-08-16T09:42:23.721Z,256
2016-08-16T09:43:24.463Z,256
2016-08-16T09:44:24.500Z,256
2016-08-16T09:45:23.832Z,260
2016-08-16T09:46:23.863Z,260
2016-08-16T09:47:24.593Z,256
2016-08-16T09:48:23.913Z,252
2016-08-16T09:49:23.956Z,256
2016-08-16T09:50:23.970Z,256
2016-08-16T09:51:24.052Z,256
2016-08-16T09:52:24.046Z,256
2016-08-16T09:53:24.083Z,256
2016-08-16T09:54:24.102Z,256
2016-08-16T09:55:24.147Z,252
2016-08-16T09:56:24.162Z,256
2016-08-16T09:57:24.204Z,252
2016-08-16T09:58:25.646Z,256
2016-08-16T09:59:25.677Z,252
2016-08-16T10:00:24.295Z,260
2016-08-16T10:01:24.323Z,280
2016-08-16T10:02:24.362Z,296
2016-08-16T10:03:25.095Z,268
2016-08-16T10:04:24.429Z,260
2016-08-16T10:05:24.450Z,276
2016-08-16T10:06:24.489Z,292
2016-08-16T10:07:24.518Z,312
2016-08-16T10:08:24.549Z,368
2016-08-16T10:09:24.575Z,312
2016-08-16T10:10:24.606Z,272
2016-08-16T10:11:25.365Z,296
2016-08-16T10:12:26.085Z,264
2016-08-16T10:13:25.412Z,260
2016-08-16T10:14:24.732Z,260
2016-08-16T10:15:24.764Z,256
2016-08-16T10:16:24.796Z,256
2016-08-16T10:17:24.826Z,260
2016-08-16T10:18:24.861Z,260
2016-08-16T10:19:25.602Z,256
2016-08-16T10:20:25.674Z,256
2016-08-16T10:21:25.664Z,260
2016-08-16T10:22:24.992Z,252
2016-08-16T10:23:25.018Z,260
2016-08-16T10:24:25.053Z,252
2016-08-16T10:25:25.274Z,260
2016-08-16T10:26:25.837Z,276
2016-08-16T10:27:25.175Z,280
2016-08-16T10:28:25.908Z,352
2016-08-16T10:29:25.233Z,476
2016-08-16T10:30:25.953Z,480
2016-08-16T10:31:25.283Z,532
2016-08-16T10:32:26.022Z,292
2016-08-16T10:33:25.346Z,252
2016-08-16T10:34:26.087Z,240
2016-08-16T10:35:25.406Z,236
2016-08-16T10:36:26.167Z,244
2016-08-16T10:37:25.473Z,260
2016-08-16T10:38:25.508Z,280
2016-08-16T10:39:40.429Z,300
2016-08-16T10:40:25.590Z,340
2016-08-16T10:41:25.601Z,452
2016-08-16T10:42:27.084Z,376
2016-08-16T10:43:25.659Z,308
2016-08-16T10:44:25.702Z,280
2016-08-16T10:45:26.477Z,264
2016-08-16T10:46:25.765Z,248
2016-08-16T10:47:25.793Z,252
2016-08-16T10:48:25.829Z,252
2016-08-16T10:49:26.569Z,244
2016-08-16T10:50:27.314Z,248
2016-08-16T10:51:26.633Z,244
2016-08-16T10:52:25.960Z,244
2016-08-16T10:53:25.991Z,244
2016-08-16T10:54:26.037Z,248
2016-08-16T10:55:26.060Z,240
2016-08-16T10:56:26.093Z,248
2016-08-16T10:57:26.826Z,248
2016-08-16T10:58:26.150Z,244
2016-08-16T10:59:26.185Z,240
2016-08-16T11:00:26.954Z,252
2016-08-16T11:01:26.257Z,256
2016-08-16T11:02:26.289Z,244
2016-08-16T11:03:27.024Z,244
2016-08-16T11:04:26.365Z,228
2016-08-16T11:05:26.381Z,248
2016-08-16T11:06:26.415Z,244
2016-08-16T11:07:26.454Z,204
2016-08-16T11:08:27.191Z,96
2016-08-16T11:09:27.220Z,88
2016-08-16T11:10:26.561Z,88
2016-08-16T11:11:26.578Z,92
2016-08-16T11:12:26.607Z,88
2016-08-16T11:13:26.647Z,84
2016-08-16T11:14:26.676Z,80
2016-08-16T11:15:26.710Z,76
2016-08-16T11:16:26.741Z,68
2016-08-16T11:17:26.785Z,80
2016-08-16T11:18:26.803Z,236
2016-08-16T11:19:26.840Z,240
2016-08-16T11:20:27.577Z,252
2016-08-16T11:21:26.904Z,188
2016-08-16T11:22:26.938Z,84
2016-08-16T11:23:28.394Z,76
2016-08-16T11:24:27.002Z,76
2016-08-16T11:25:27.762Z,76
2016-08-16T11:26:27.070Z,124
2016-08-16T11:27:27.103Z,144
2016-08-16T11:28:27.152Z,100
2016-08-16T11:29:27.170Z,72
2016-08-16T11:30:27.197Z,80
2016-08-16T11:31:27.237Z,224
2016-08-16T11:32:27.264Z,240
2016-08-16T11:33:27.294Z,236
2016-08-16T11:34:27.349Z,240
2016-08-16T11:35:27.357Z,236
2016-08-16T11:36:27.390Z,236
2016-08-16T11:37:28.136Z,240
2016-08-16T11:38:27.456Z,240
2016-08-16T11:39:27.481Z,76
2016-08-16T11:40:27.521Z,112
2016-08-16T11:41:27.607Z,208
2016-08-16T11:42:27.667Z,76
2016-08-16T11:43:27.631Z,188
2016-08-16T11:44:27.656Z,128
2016-08-16T11:45:28.399Z,212
2016-08-16T11:46:28.429Z,216
2016-08-16T11:47:27.744Z,152
2016-08-16T11:48:27.776Z,228
2016-08-16T11:49:27.812Z,80
2016-08-16T11:50:27.848Z,76
2016-08-16T11:51:27.874Z,72
2016-08-16T11:52:27.915Z,80
2016-08-16T11:53:28.654Z,204
2016-08-16T11:54:27.973Z,140
2016-08-16T11:55:28.005Z,76
2016-08-16T11:56:28.059Z,76
2016-08-16T11:57:28.082Z,72
2016-08-16T11:58:28.102Z,64
2016-08-16T11:59:28.209Z,72
2016-08-16T12:00:28.171Z,216
2016-08-16T12:01:28.201Z,216
2016-08-16T12:02:28.250Z,216
2016-08-16T12:03:28.974Z,212
2016-08-16T12:04:28.293Z,208
2016-08-16T12:05:28.328Z,212
2016-08-16T12:06:29.077Z,220
2016-08-16T12:07:28.395Z,216
2016-08-16T12:08:28.443Z,196
2016-08-16T12:09:29.877Z,208
2016-08-16T12:10:28.486Z,212
2016-08-16T12:11:28.522Z,80
2016-08-16T12:12:28.556Z,80
2016-08-16T12:13:28.586Z,212
2016-08-16T12:14:28.618Z,124
2016-08-16T12:15:28.659Z,208
2016-08-16T12:16:28.682Z,212
2016-08-16T12:17:28.798Z,196
2016-08-16T12:18:28.759Z,212
2016-08-16T12:19:28.791Z,216
2016-08-16T12:20:29.017Z,216
2016-08-16T12:21:28.845Z,212
2016-08-16T12:22:28.873Z,216
2016-08-16T12:23:28.914Z,212
2016-08-16T12:24:29.674Z,84
2016-08-16T12:25:28.985Z,72
2016-08-16T12:26:29.031Z,72
2016-08-16T12:27:29.054Z,72
2016-08-16T12:28:29.072Z,68
2016-08-16T12:29:29.103Z,68
2016-08-16T12:30:29.149Z,68
2016-08-16T12:31:29.170Z,68
2016-08-16T12:32:29.202Z,104
2016-08-16T12:33:29.241Z,200
2016-08-16T12:34:29.269Z,212
2016-08-16T12:35:29.403Z,212
2016-08-16T12:36:29.334Z,76
2016-08-16T12:37:29.373Z,76
2016-08-16T12:38:29.399Z,68
2016-08-16T12:39:29.432Z,72
2016-08-16T12:40:29.462Z,120
2016-08-16T12:41:44.387Z,208
2016-08-16T12:42:29.552Z,208
2016-08-16T12:43:29.565Z,136
2016-08-16T12:44:30.305Z,200
2016-08-16T12:45:29.645Z,200
2016-08-16T12:46:30.369Z,192
2016-08-16T12:47:29.689Z,76
2016-08-16T12:48:29.723Z,72
2016-08-16T12:49:29.764Z,68
2016-08-16T12:50:30.506Z,68
2016-08-16T12:51:29.837Z,84
2016-08-16T12:52:29.856Z,192
2016-08-16T12:53:31.304Z,188
2016-08-16T12:54:29.919Z,188
2016-08-16T12:55:29.950Z,184
2016-08-16T12:56:29.984Z,188
2016-08-16T12:57:30.229Z,188
2016-08-16T12:58:30.053Z,192
2016-08-16T12:59:30.078Z,196
2016-08-16T13:00:30.118Z,196
2016-08-16T13:01:30.166Z,196
2016-08-16T13:02:30.187Z,200
2016-08-16T13:03:30.223Z,200
2016-08-16T13:35:45.745Z,160
2016-08-16T13:36:02.519Z,160
2016-08-16T13:37:02.571Z,164
2016-08-16T13:38:02.589Z,160
2016-08-16T13:39:01.933Z,156
2016-08-16T13:40:02.654Z,156
2016-08-16T13:41:01.992Z,156
2016-08-16T13:42:01.300Z,152
2016-08-16T13:43:02.050Z,60
2016-08-16T13:44:01.363Z,152
2016-08-16T13:45:01.398Z,144
2016-08-16T13:46:02.857Z,56
2016-08-16T13:47:02.888Z,52
2016-08-16T13:48:03.638Z,140
2016-08-16T13:49:01.532Z,56
2016-08-16T13:50:02.285Z,56
2016-08-16T13:51:02.316Z,144
2016-08-16T13:52:01.631Z,140
2016-08-16T13:53:01.665Z,140
2016-08-16T13:54:01.693Z,132
2016-08-16T13:55:03.860Z,132
2016-08-16T13:56:03.191Z,136
2016-08-16T13:57:03.218Z,136
2016-08-16T13:58:03.245Z,132
2016-08-16T13:59:02.566Z,136
2016-08-16T14:00:02.605Z,132
2016-08-16T14:01:02.647Z,132
2016-08-16T14:02:03.379Z,132
2016-08-16T14:03:03.428Z,132
2016-08-16T14:04:02.750Z,136
2016-08-16T14:05:02.779Z,128
2016-08-16T14:06:03.525Z,128
2016-08-16T14:07:02.836Z,128
2016-08-16T14:08:04.293Z,128
2016-08-16T14:09:02.905Z,124
2016-08-16T14:10:02.934Z,124
2016-08-16T14:11:03.679Z,112
2016-08-16T14:12:02.314Z,120
2016-08-16T14:13:04.455Z,120
2016-08-16T14:14:03.067Z,48
2016-08-16T14:15:02.409Z,48
2016-08-16T14:16:03.848Z,124
2016-08-16T14:17:03.161Z,104
2016-08-16T14:18:03.906Z,116
2016-08-16T14:19:03.963Z,116
2016-08-16T14:20:02.557Z,112
2016-08-16T14:21:04.012Z,116
2016-08-16T14:22:02.618Z,56
2016-08-16T14:23:03.371Z,112
2016-08-16T14:24:04.117Z,112
2016-08-16T14:25:02.725Z,112
2016-08-16T14:26:04.178Z,52
2016-08-16T14:27:03.491Z,64
2016-08-16T14:28:03.532Z,108
2016-08-16T14:29:04.275Z,104
2016-08-16T14:30:04.311Z,100
2016-08-16T14:31:03.628Z,76
2016-08-16T14:32:04.384Z,52
2016-08-16T14:33:03.704Z,44
2016-08-16T14:34:04.430Z,40
2016-08-16T14:35:03.755Z,76
2016-08-16T14:36:04.499Z,96
2016-08-16T14:37:04.553Z,96
2016-08-16T14:38:03.855Z,100
2016-08-16T14:39:03.194Z,100
2016-08-16T14:40:03.923Z,96
2016-08-16T14:41:04.663Z,96
2016-08-16T14:42:04.696Z,92
2016-08-16T14:43:04.018Z,92